Historyczne dane pomiarowe

Dodano dane terminowe – wersja testowa.

Dane z okresu 1951-2019

Wersja bazy: 1.34 [2019-03-16, lista zmian], aktualizacja planowana na 2019-04-15

Dane meteo z obszaru Polski uzyskane na podstawie danych udostępnionych przez Instytut Meteorologii i Gospodarki Wodnej – Państwowy Instytut Badawczy.

 

Wybierz Datę:    

       

TemperaturaWilgotnośćWiatrCiśnienieOpadyŚniegCzas trwania zjawisk
 Stacja t tx tn tng RH VA  wxwx mslp ppp RRR   cm mm wxwxwxwxwxwxwx
1961-08-14 11.7 19.0 3.2 0.6 83.5- 3.7 1.0---- 0.0------------
1961-08-13 11.1 15.5 8.7 8.9 89.8- 5.7 3.0---- 1.0------------
1961-08-12 14.6 19.1 12.7 10.4 92.0- 7.7 2.0---- 4.9------------
1961-08-11 16.2 21.0 14.1 14.2 96.3- 5.7 2.7---- 24.1------------
1961-08-10 21.7 27.9 15.8 13.2 87.0- 5.7 0.7---- 2.3------------
1961-08-09 19.4 25.1 13.6 12.6 89.0- 7.3 1.0---- 2.7------------
1961-08-08 17.7 25.6 8.2 5.7 84.5- 4.7 1.7---- 0.0------------
1961-08-07 17.0 23.4 14.6 14.3 89.3- 6.7 1.7---- 1.8------------
1961-08-06 23.1 30.1 11.5 7.8 64.5- 1.7 2.3---- 6.2------------
1961-08-05 17.5 24.6 13.5 10.3 84.8- 4.0 1.3---- 0.0------------
1961-08-04 14.7 18.2 3.5 2.6 72.8- 7.3 2.3---- 0.5------------
1961-08-03 12.0 17.2 9.8 6.3 88.0- 5.0 4.0---- 0.0------------
1961-08-02 13.3 22.6 5.2 2.7 92.0- 5.0 1.0---- 2.6------------
1961-08-01 14.2 20.7 11.5 8.6 77.3- 2.7 3.3---- 0.0------------
1961-07-31 12.4 16.4 10.4- 82.8- 7.0 4.3---- 9.8------------
1961-07-30 11.5 15.3 6.2- 89.0- 7.7 1.7---- 26.0------------
1961-07-29 10.9 16.0 8.7- 85.5- 5.0 3.0---- 0.0------------
1961-07-28 14.9 17.8 11.0- 87.5- 8.0 2.3---- 19.8------------
1961-07-27 17.9 23.7 10.9- 75.0- 6.7 3.3---- 13.5------------
1961-07-26 15.3 23.5 5.7- 74.0- 2.7 1.7---- 0.0------------
1961-07-25 11.3 17.2 9.6- 84.5- 5.3 1.0---- 0.0------------
1961-07-24 12.8 15.2 10.9- 75.0- 7.7 3.0---- 0.0------------
1961-07-23 13.0 15.4 6.0- 79.8- 6.7 3.0---- 0.0------------
1961-07-22 12.9 16.2 11.0- 82.0- 6.7 4.3---- 0.0------------
1961-07-21 13.4 15.4 12.6- 82.0- 7.7 4.7---- 3.0------------
1961-07-20 13.7 18.9 5.9- 81.5- 6.7 2.0---- 0.6------------
1961-07-19 11.8 17.2 9.2- 94.8- 6.0 0.7---- 5.6------------
1961-07-18 13.3 18.2 10.7- 85.5- 7.3 3.7---- 7.0------------
1961-07-17 13.0 16.6 6.1- 79.3- 7.0 2.7---- 2.2------------
1961-07-16 14.4 21.8 10.7- 76.8- 4.7 1.7---- 0.6------------
1961-07-15 18.3 23.5 14.2- 62.5- 5.3 3.0---- 7.7------------
1961-07-14 16.3 20.3 11.6- 53.0- 6.7 4.3---- 0.5------------
1961-07-13 16.3 24.3 13.7- 86.3- 6.0 4.0---- 1.8------------
1961-07-12 21.0 28.0 12.3- 67.3- 3.3 2.3---- 0.0------------
1961-07-11 15.9 22.9 4.4- 79.0- 7.0 1.3---- 0.1------------
1961-07-10 11.7 17.1 6.7- 76.8- 4.7 2.3---- 0.0------------
1961-07-09 12.9 17.0 5.7- 88.0- 7.3 3.3---- 3.7------------
1961-07-08 13.2 20.1 2.0- 72.0- 5.0 1.3---- 0.0------------
1961-07-07 11.5 16.9 7.7- 71.3- 5.7 2.7---- 0.0------------
1961-07-06 11.7 14.8 8.4- 76.3- 7.0 4.7---- 0.0------------
1961-07-05 10.8 16.8 8.6- 73.0- 6.0 3.7---- 2.2------------
1961-07-04 18.3 26.2 14.6- 64.8- 5.7 3.0---- 0.2------------
1961-07-03 22.8 30.5 8.7- 61.3- 3.0 2.0---- 0.1------------
1961-07-02 20.8 28.9 9.5- 65.0- 0.0 0.0---- 0.0------------
1961-07-01 19.6 27.7 7.1- 68.3- 0.0 0.3---- 0.0------------
1961-06-30 17.4 24.7 5.8- 72.5- 0.0 1.3---- 0.0------------
1961-06-29 15.1 21.9 6.8- 73.5- 1.7 1.7---- 0.0------------
1961-06-28 12.6 18.1 10.7- 70.8- 4.3 5.3---- 0.0------------
1961-06-27 19.8 26.1 12.6- 74.8- 6.3 4.0---- 4.5------------
1961-06-26 19.5 26.7 11.5- 78.5- 6.0 2.3---- 0.0------------
1961-06-25 20.3 28.2 8.6- 66.3- 0.3 0.3---- 0.0------------
1961-06-24 16.8 24.9 7.0- 77.5- 3.7 3.3---- 0.0------------
1961-06-23 16.2 22.0 12.2- 76.5- 2.3 4.0---- 0.0------------
1961-06-22 18.7 25.8 3.8- 73.5- 4.3 1.0---- 2.7------------
1961-06-21 14.8 22.9 3.0- 74.8- 3.3 1.3---- 0.0------------
1961-06-20 12.3 19.1 4.5- 75.8- 1.7 1.3---- 0.0------------
1961-06-19 15.6 18.7 11.8- 80.0- 5.7 1.7---- 3.2------------
1961-06-18 19.1 26.0 6.8- 65.0- 0.0 2.7---- 0.0------------
1961-06-17 14.7 21.9 2.5- 74.5- 4.3 0.3---- 0.0------------
1961-06-16 11.4 18.6 3.8- 77.0- 3.7 1.3---- 0.0------------
1403.9 ms

 

Źródłem pochodzenia danych jest Instytut Meteorologii i Gospodarki Wodnej – Państwowy Instytut Badawczy. Dane Instytutu Meteorologii i Gospodarki Wodnej – Państwowego Instytutu Badawczego zostały przetworzone.

Dane źródłowe można odnaleźć na stronie https://dane.imgw.pl